Time;durP1;ratioP1;P1;durP2;ratioP2;P2;SDS_P1;SDS_P2;PMS_P1;PMS_P2;Temp;Humidity;BMP_temperature;BMP_pressure;BME280_temperature;BME280_humidity;BME280_pressure;Samples;Min_cycle;Max_cycle;Signal;HPM_P1;HPM_P2
2021/03/27 00:00:33;;;;;;;53.73;40.67;;;11.30;99.90;;;;;;5008066;28;20233;-77
2021/03/27 00:03:04;;;;;;;51.33;39.57;;;11.30;99.90;;;;;;5007811;28;20221;-77
2021/03/27 00:05:32;;;;;;;54.40;40.20;;;11.30;99.90;;;;;;5007213;28;20206;-77
2021/03/27 00:08:14;;;;;;;52.87;39.10;;;11.30;99.90;;;;;;5011173;28;20202;-77
2021/03/27 00:10:46;;;;;;;50.20;39.23;;;11.30;99.90;;;;;;5010996;28;20225;-77
2021/03/27 00:13:27;;;;;;;51.53;39.53;;;11.20;99.90;;;;;;5011113;28;20689;-77
2021/03/27 00:15:59;;;;;;;53.37;38.73;;;11.20;99.90;;;;;;5010919;28;20202;-77
2021/03/27 00:18:29;;;;;;;53.10;39.57;;;11.20;99.90;;;;;;5010700;28;20197;-77
2021/03/27 00:21:00;;;;;;;54.70;39.40;;;11.10;99.90;;;;;;5010167;28;20757;-77
2021/03/27 00:23:33;;;;;;;51.77;37.80;;;11.10;99.90;;;;;;5010717;28;20212;-76
2021/03/27 00:26:04;;;;;;;55.13;39.07;;;11.10;99.90;;;;;;5010370;28;20336;-76
2021/03/27 00:28:37;;;;;;;51.40;37.83;;;11.00;99.90;;;;;;5010459;28;20253;-77
2021/03/27 00:31:09;;;;;;;52.73;39.53;;;11.00;99.90;;;;;;5010569;28;20193;-76
2021/03/27 00:33:52;;;;;;;52.90;37.87;;;11.00;99.90;;;;;;5010469;28;20252;-78
2021/03/27 00:36:21;;;;;;;49.63;36.80;;;11.00;99.90;;;;;;5010807;28;20280;-77
2021/03/27 00:38:52;;;;;;;51.33;36.23;;;11.00;99.90;;;;;;5010492;28;20574;-76
2021/03/27 00:41:23;;;;;;;52.50;36.83;;;11.00;99.90;;;;;;5010724;28;20208;-76
2021/03/27 00:43:56;;;;;;;49.60;37.10;;;11.00;99.90;;;;;;5010486;28;20229;-76
2021/03/27 00:46:23;;;;;;;52.73;37.90;;;10.90;99.90;;;;;;5010393;28;20648;-76
2021/03/27 00:48:56;;;;;;;49.80;36.70;;;10.90;99.90;;;;;;5010084;28;20269;-76
2021/03/27 00:51:27;;;;;;;47.23;36.80;;;10.90;99.90;;;;;;5010145;28;20217;-75
2021/03/27 00:53:59;;;;;;;47.63;36.07;;;10.90;99.90;;;;;;4995352;28;20221;-75
2021/03/27 00:56:29;;;;;;;50.57;37.43;;;10.90;99.90;;;;;;4990670;28;20253;-75
2021/03/27 00:58:58;;;;;;;49.07;37.30;;;10.90;99.90;;;;;;4990699;28;20194;-76
2021/03/27 01:01:27;;;;;;;51.03;37.67;;;10.90;99.90;;;;;;4990271;28;20210;-75
2021/03/27 01:03:57;;;;;;;51.80;38.80;;;10.90;99.90;;;;;;4990326;28;20238;-75
2021/03/27 01:06:28;;;;;;;52.27;38.27;;;10.90;99.90;;;;;;4990175;28;20221;-74
2021/03/27 01:08:57;;;;;;;45.50;36.03;;;10.80;99.90;;;;;;4989896;28;20701;-75
2021/03/27 01:11:27;;;;;;;44.30;34.77;;;10.80;99.90;;;;;;4989902;28;20695;-75
2021/03/27 01:13:56;;;;;;;50.83;36.30;;;10.80;99.90;;;;;;4990087;28;20210;-75
2021/03/27 01:16:26;;;;;;;44.63;34.37;;;10.80;99.90;;;;;;4990210;28;20657;-75
2021/03/27 01:18:57;;;;;;;49.00;35.83;;;10.80;99.90;;;;;;4989580;28;20698;-76
2021/03/27 01:21:27;;;;;;;44.80;35.20;;;10.80;99.90;;;;;;4990316;28;20214;-75
2021/03/27 01:23:57;;;;;;;46.70;35.17;;;10.80;99.90;;;;;;5005143;28;20209;-75
2021/03/27 01:26:26;;;;;;;51.47;36.83;;;10.70;99.90;;;;;;5010006;28;20209;-75
2021/03/27 01:28:58;;;;;;;46.20;35.57;;;10.70;99.90;;;;;;5009401;28;20236;-75
2021/03/27 01:31:37;;;;;;;47.53;36.33;;;10.80;99.90;;;;;;5009682;28;20201;-75
2021/03/27 01:34:17;;;;;;;45.60;35.80;;;10.70;99.90;;;;;;5009399;28;20193;-75
2021/03/27 01:36:47;;;;;;;48.67;34.37;;;10.70;99.90;;;;;;5009062;28;20190;-75
2021/03/27 01:39:18;;;;;;;48.03;34.43;;;10.70;99.90;;;;;;5009375;28;20224;-75
2021/03/27 01:41:57;;;;;;;46.83;33.73;;;10.70;99.90;;;;;;5009381;28;20194;-75
2021/03/27 01:44:48;;;;;;;48.10;36.00;;;10.70;99.90;;;;;;5009333;28;20224;-75
2021/03/27 01:47:24;;;;;;;49.60;34.83;;;10.60;99.90;;;;;;5009276;28;20209;-75
2021/03/27 01:50:00;;;;;;;45.33;35.17;;;10.60;99.90;;;;;;5009025;28;20233;-76
2021/03/27 01:52:38;;;;;;;48.83;35.37;;;10.60;99.90;;;;;;5006096;28;20288;-76
2021/03/27 01:55:36;;;;;;;46.90;35.43;;;10.60;99.90;;;;;;4989092;28;20799;-75
2021/03/27 01:58:10;;;;;;;48.27;34.70;;;10.60;99.90;;;;;;4964029;28;20210;-75
2021/03/27 02:00:40;;;;;;;48.27;34.50;;;10.60;99.90;;;;;;4988404;28;20607;-76
2021/03/27 02:03:12;;;;;;;43.10;33.80;;;10.50;99.90;;;;;;4989362;28;20553;-78
2021/03/27 02:05:42;;;;;;;45.03;34.23;;;10.50;99.90;;;;;;4989344;28;20195;-77
2021/03/27 02:08:16;;;;;;;46.43;35.67;;;10.50;99.90;;;;;;4989402;28;20198;-77
2021/03/27 02:10:54;;;;;;;45.60;34.27;;;10.50;99.90;;;;;;4989053;28;20233;-78
2021/03/27 02:13:27;;;;;;;45.13;34.63;;;10.50;99.90;;;;;;4989127;28;20245;-77
2021/03/27 02:16:00;;;;;;;45.00;33.93;;;10.50;99.90;;;;;;4988919;28;20249;-76
2021/03/27 02:18:35;;;;;;;44.50;35.63;;;10.50;99.90;;;;;;4988897;28;20197;-77
2021/03/27 02:21:46;;;;;;;50.60;35.53;;;10.50;99.90;;;;;;4988974;28;20789;-76
2021/03/27 02:24:42;;;;;;;47.60;34.33;;;10.40;99.90;;;;;;4964360;28;20629;-76
2021/03/27 02:27:13;;;;;;;43.17;33.90;;;10.40;99.90;;;;;;4989122;28;20210;-76
2021/03/27 02:30:05;;;;;;;50.60;37.10;;;10.40;99.90;;;;;;4989211;28;20263;-76
2021/03/27 02:32:53;;;;;;;51.37;37.87;;;10.40;99.90;;;;;;4989236;28;20190;-74
2021/03/27 02:35:35;;;;;;;50.87;37.30;;;10.40;99.90;;;;;;4989473;28;20194;-74
2021/03/27 02:38:12;;;;;;;48.57;36.90;;;10.30;99.90;;;;;;4989011;28;20205;-74
2021/03/27 02:40:43;;;;;;;47.70;36.03;;;10.30;99.90;;;;;;4988830;28;20202;-74
2021/03/27 02:43:15;;;;;;;49.40;37.37;;;10.30;99.90;;;;;;4988735;28;20229;-77
2021/03/27 02:45:52;;;;;;;48.57;37.00;;;10.30;99.90;;;;;;4989302;28;20198;-76
2021/03/27 02:48:21;;;;;;;48.30;37.10;;;10.30;99.90;;;;;;4989112;28;20238;-76
2021/03/27 02:51:01;;;;;;;47.20;35.87;;;10.20;99.90;;;;;;4988906;28;20230;-76
2021/03/27 02:53:37;;;;;;;48.53;35.10;;;10.20;99.90;;;;;;5000415;28;20205;-76
2021/03/27 02:56:17;;;;;;;49.83;36.27;;;10.20;99.90;;;;;;5008286;28;20197;-76
2021/03/27 02:58:52;;;;;;;48.17;35.57;;;10.20;99.90;;;;;;5008546;28;20190;-76
2021/03/27 03:01:27;;;;;;;47.77;35.37;;;10.20;99.90;;;;;;5008548;28;20232;-77
2021/03/27 03:04:03;;;;;;;48.03;35.37;;;10.20;99.90;;;;;;5008046;28;20672;-78
2021/03/27 03:06:34;;;;;;;44.20;33.77;;;10.20;99.90;;;;;;5008282;28;20680;-76
2021/03/27 03:09:13;;;;;;;44.37;32.23;;;10.20;99.90;;;;;;5008011;28;20221;-76
2021/03/27 03:11:48;;;;;;;45.20;32.03;;;10.20;99.90;;;;;;5008632;28;20297;-76
2021/03/27 03:14:20;;;;;;;40.43;31.73;;;10.20;99.90;;;;;;5012135;28;20208;-76
2021/03/27 03:16:57;;;;;;;37.53;28.87;;;10.20;99.90;;;;;;5012039;28;20295;-76
2021/03/27 03:19:30;;;;;;;41.03;30.03;;;10.20;99.90;;;;;;5011984;28;20241;-75
2021/03/27 03:22:05;;;;;;;35.17;28.60;;;10.20;99.90;;;;;;5011667;28;20201;-76
2021/03/27 03:24:37;;;;;;;35.97;27.73;;;10.20;99.90;;;;;;4992342;28;20517;-75
2021/03/27 03:27:11;;;;;;;39.50;28.83;;;10.20;99.90;;;;;;4992117;28;20198;-76
2021/03/27 03:29:51;;;;;;;40.70;29.83;;;10.10;99.90;;;;;;4992034;28;20230;-76
2021/03/27 03:32:29;;;;;;;37.90;27.60;;;10.20;99.90;;;;;;4992303;28;20198;-76
2021/03/27 03:35:03;;;;;;;36.30;27.17;;;10.10;99.90;;;;;;4992049;28;20194;-75
2021/03/27 03:37:51;;;;;;;35.83;27.43;;;10.10;99.90;;;;;;4992219;28;20198;-77
2021/03/27 03:40:24;;;;;;;35.60;26.13;;;10.10;99.90;;;;;;4992355;28;20207;-77
2021/03/27 03:43:04;;;;;;;35.53;26.23;;;10.10;99.90;;;;;;4991770;28;20580;-76
2021/03/27 03:45:47;;;;;;;34.77;27.23;;;10.10;99.90;;;;;;4992118;28;20197;-76
2021/03/27 03:48:36;;;;;;;32.40;26.20;;;10.10;99.90;;;;;;4992471;28;20195;-76
2021/03/27 03:51:09;;;;;;;36.13;26.70;;;10.10;99.90;;;;;;4991588;28;20234;-76
2021/03/27 03:53:42;;;;;;;38.63;27.60;;;10.00;99.90;;;;;;5004610;28;20564;-75
2021/03/27 03:56:18;;;;;;;32.53;25.93;;;10.00;99.90;;;;;;5011001;28;20767;-76
2021/03/27 03:59:04;;;;;;;33.63;25.17;;;10.00;99.90;;;;;;5011952;28;20259;-79
2021/03/27 04:01:43;;;;;;;32.73;25.03;;;10.00;99.90;;;;;;4998429;28;20213;-79
2021/03/27 04:04:17;;;;;;;31.07;24.60;;;10.00;99.90;;;;;;5011368;28;20247;-77
2021/03/27 04:06:44;;;;;;;34.80;24.20;;;10.00;99.90;;;;;;5011264;28;20201;-76
2021/03/27 04:09:16;;;;;;;30.37;24.13;;;9.90;99.90;;;;;;5010887;28;20244;-75
2021/03/27 04:11:57;;;;;;;33.33;25.67;;;9.80;99.90;;;;;;5010963;28;20194;-75
2021/03/27 04:14:46;;;;;;;40.23;27.00;;;9.80;99.90;;;;;;5011104;28;20197;-75
2021/03/27 04:17:17;;;;;;;29.77;23.83;;;9.80;99.90;;;;;;5010729;28;20663;-79
2021/03/27 04:19:50;;;;;;;30.33;23.77;;;9.80;99.90;;;;;;5010948;28;20245;-78
2021/03/27 04:22:25;;;;;;;32.10;24.67;;;9.80;99.90;;;;;;5009304;28;20205;-78
2021/03/27 04:25:02;;;;;;;33.17;25.20;;;9.80;99.90;;;;;;4990935;28;20232;-74
2021/03/27 04:27:31;;;;;;;33.60;25.43;;;9.90;99.90;;;;;;4991675;28;20198;-75
2021/03/27 04:30:07;;;;;;;33.63;26.00;;;9.80;99.90;;;;;;4990731;28;20296;-76
2021/03/27 04:32:45;;;;;;;34.93;25.40;;;9.80;99.90;;;;;;4991125;28;20194;-77
2021/03/27 04:35:24;;;;;;;35.30;25.23;;;9.80;99.90;;;;;;4990513;28;20954;-77
2021/03/27 04:38:05;;;;;;;37.30;26.57;;;9.70;99.90;;;;;;4990664;28;20202;-77
2021/03/27 04:40:38;;;;;;;34.97;25.40;;;9.70;99.90;;;;;;4991184;28;20201;-77
2021/03/27 04:43:10;;;;;;;31.93;25.30;;;9.70;99.90;;;;;;4991091;28;20198;-77
2021/03/27 04:45:45;;;;;;;30.17;23.73;;;9.70;99.90;;;;;;4991152;28;20194;-77
2021/03/27 04:48:23;;;;;;;33.90;24.60;;;9.70;99.90;;;;;;4990816;28;20202;-77
2021/03/27 04:51:15;;;;;;;31.10;23.10;;;9.50;99.90;;;;;;4990614;28;20257;-77
2021/03/27 04:53:43;;;;;;;30.50;23.60;;;9.50;99.90;;;;;;5004078;28;20268;-77
2021/03/27 04:56:15;;;;;;;32.57;23.57;;;9.60;99.90;;;;;;5010336;28;20213;-78
2021/03/27 04:58:45;;;;;;;30.73;22.97;;;9.60;99.90;;;;;;5010612;28;20198;-78
2021/03/27 05:01:20;;;;;;;29.73;22.97;;;9.60;99.90;;;;;;5010237;28;20206;-78
2021/03/27 05:03:58;;;;;;;29.00;22.90;;;9.60;99.90;;;;;;5010589;28;20197;-78
2021/03/27 05:06:33;;;;;;;29.03;22.10;;;9.60;99.90;;;;;;5010373;28;20193;-78
2021/03/27 05:09:12;;;;;;;28.43;22.40;;;9.60;99.90;;;;;;5009761;28;20628;-78
2021/03/27 05:11:45;;;;;;;28.33;21.47;;;9.60;99.90;;;;;;5010184;28;20201;-78
2021/03/27 05:15:02;;;;;;;27.50;21.77;;;9.70;99.90;;;;;;5009984;28;20202;-78
2021/03/27 05:17:49;;;;;;;28.50;22.00;;;9.60;99.90;;;;;;4933619;29;20243;-78
2021/03/27 05:20:19;;;;;;;30.77;21.73;;;9.70;99.90;;;;;;4948759;29;20238;-78
2021/03/27 05:22:57;;;;;;;28.03;21.20;;;9.70;99.90;;;;;;4986151;28;20252;-77
2021/03/27 05:25:37;;;;;;;25.87;19.30;;;9.70;99.90;;;;;;5010142;28;20204;-77
2021/03/27 05:28:13;;;;;;;31.20;21.63;;;9.70;99.90;;;;;;5009480;28;20661;-77
2021/03/27 05:30:48;;;;;;;27.27;21.03;;;9.80;99.90;;;;;;5009367;28;20947;-77
2021/03/27 05:33:30;;;;;;;25.27;20.47;;;9.80;99.90;;;;;;5009752;28;20243;-78
2021/03/27 05:36:10;;;;;;;27.60;20.50;;;9.80;99.90;;;;;;5008444;28;20194;-76
2021/03/27 05:38:42;;;;;;;25.33;20.40;;;9.80;99.90;;;;;;5009767;28;20233;-77
2021/03/27 05:41:40;;;;;;;26.30;20.87;;;9.70;99.90;;;;;;5009485;28;20714;-77
2021/03/27 05:44:58;;;;;;;23.77;19.80;;;9.80;99.90;;;;;;5009550;28;20202;-77
2021/03/27 05:48:10;;;;;;;27.83;21.00;;;9.80;99.90;;;;;;5009250;28;20202;-76
2021/03/27 05:50:51;;;;;;;26.17;19.43;;;9.80;99.90;;;;;;5002487;28;20273;-79
2021/03/27 05:53:44;;;;;;;24.33;19.47;;;9.80;99.90;;;;;;5009499;28;20263;-79
2021/03/27 05:56:54;;;;;;;25.27;19.67;;;9.80;99.90;;;;;;5009166;28;20201;-79
2021/03/27 05:59:57;;;;;;;23.20;18.23;;;9.80;99.90;;;;;;5009079;28;20217;-79
2021/03/27 06:02:45;;;;;;;24.67;19.43;;;9.80;99.90;;;;;;5009102;28;20200;-76
2021/03/27 06:05:29;;;;;;;23.40;18.40;;;9.80;99.90;;;;;;5008781;28;20584;-78
2021/03/27 06:08:22;;;;;;;23.37;18.50;;;9.80;99.90;;;;;;5009274;28;20194;-77
2021/03/27 06:11:07;;;;;;;22.60;17.90;;;9.80;99.90;;;;;;5008995;28;20272;-77
2021/03/27 06:14:12;;;;;;;23.03;18.53;;;9.80;99.90;;;;;;5009397;28;20268;-78
2021/03/27 06:16:48;;;;;;;21.70;17.23;;;9.80;99.90;;;;;;4990721;28;20727;-78
2021/03/27 06:19:47;;;;;;;19.43;17.00;;;9.80;99.90;;;;;;5008956;28;20308;-77
2021/03/27 06:22:23;;;;;;;23.37;18.57;;;9.90;99.90;;;;;;5008770;28;20299;-78
2021/03/27 06:25:16;;;;;;;21.13;17.50;;;9.90;99.90;;;;;;5009106;28;20205;-78
2021/03/27 06:28:20;;;;;;;22.53;17.43;;;9.90;99.90;;;;;;5008736;28;20209;-78
2021/03/27 06:31:05;;;;;;;24.27;17.63;;;9.90;99.90;;;;;;5009047;28;20221;-78
2021/03/27 06:33:51;;;;;;;19.27;16.43;;;10.00;99.90;;;;;;5008808;28;20217;-76
2021/03/27 06:36:28;;;;;;;22.23;16.60;;;10.00;99.90;;;;;;5008672;28;20197;-76
2021/03/27 06:39:24;;;;;;;21.13;16.90;;;10.10;99.90;;;;;;5008641;28;20193;-76
2021/03/27 06:42:25;;;;;;;21.47;15.53;;;10.20;99.90;;;;;;5008742;28;20205;-76
2021/03/27 06:45:26;;;;;;;18.30;15.00;;;10.20;99.90;;;;;;5008813;28;20205;-76
2021/03/27 06:48:20;;;;;;;20.57;16.00;;;10.20;99.90;;;;;;4999863;28;20211;-77
2021/03/27 06:51:20;;;;;;;18.53;15.07;;;10.30;99.90;;;;;;4972365;28;20221;-78
2021/03/27 06:54:17;;;;;;;19.97;14.90;;;10.20;99.90;;;;;;5003551;28;20687;-79
2021/03/27 06:56:48;;;;;;;18.27;14.90;;;10.30;99.90;;;;;;5001557;28;20637;-79
2021/03/27 06:59:53;;;;;;;16.60;13.47;;;10.30;99.90;;;;;;5001284;28;20198;-77
2021/03/27 07:02:47;;;;;;;18.93;14.47;;;10.30;99.90;;;;;;5000475;28;20190;-78
2021/03/27 07:05:48;;;;;;;16.43;12.80;;;10.30;99.90;;;;;;4970312;28;20213;-78
2021/03/27 07:08:35;;;;;;;15.37;13.13;;;10.30;99.90;;;;;;4980306;28;20205;-76
2021/03/27 07:11:20;;;;;;;16.50;13.40;;;10.30;99.90;;;;;;5001106;28;20230;-78
2021/03/27 07:14:20;;;;;;;17.07;14.67;;;10.40;99.90;;;;;;4988379;28;20205;-77
2021/03/27 07:17:13;;;;;;;17.40;14.23;;;10.40;99.90;;;;;;4993745;28;20236;-77
2021/03/27 07:20:00;;;;;;;21.27;15.83;;;10.30;99.90;;;;;;4991003;28;20669;-76
2021/03/27 07:22:49;;;;;;;20.57;17.10;;;10.30;99.90;;;;;;4991316;28;20614;-77
2021/03/27 07:25:46;;;;;;;24.27;17.77;;;10.10;99.90;;;;;;5007451;28;20197;-77
2021/03/27 07:28:36;;;;;;;18.37;15.73;;;9.90;99.90;;;;;;5007867;28;20216;-74
2021/03/27 07:31:18;;;;;;;20.77;16.40;;;9.60;99.90;;;;;;5007564;28;20519;-77
2021/03/27 07:33:55;;;;;;;22.67;16.90;;;9.60;99.90;;;;;;4998629;28;20197;-78
2021/03/27 07:36:57;;;;;;;19.67;15.00;;;9.40;99.90;;;;;;4997776;28;20198;-78
2021/03/27 07:39:46;;;;;;;19.20;15.73;;;9.30;99.90;;;;;;4998565;28;20210;-78
2021/03/27 07:43:03;;;;;;;22.47;15.97;;;9.20;99.90;;;;;;5005515;28;20205;-78
2021/03/27 07:45:39;;;;;;;19.57;14.97;;;9.10;99.90;;;;;;4972488;28;20581;-77
2021/03/27 07:48:38;;;;;;;16.53;13.53;;;9.10;99.90;;;;;;5007213;28;20649;-78
2021/03/27 07:51:21;;;;;;;15.90;12.60;;;9.10;99.90;;;;;;5007454;28;20269;-77
2021/03/27 07:54:06;;;;;;;14.40;12.90;;;9.20;99.90;;;;;;5007503;28;20637;-77
2021/03/27 07:56:44;;;;;;;12.73;11.07;;;9.20;99.90;;;;;;5007364;28;20652;-76
2021/03/27 07:59:40;;;;;;;8.17;7.27;;;9.10;99.90;;;;;;5006233;28;20212;-77
2021/03/27 08:02:40;;;;;;;4.87;4.37;;;8.80;99.90;;;;;;5007634;28;20220;-77
2021/03/27 08:05:46;;;;;;;2.53;2.33;;;8.50;99.90;;;;;;5007235;28;20599;-77
2021/03/27 08:08:42;;;;;;;1.83;1.37;;;8.10;99.90;;;;;;5007010;28;20201;-77
2021/03/27 08:11:22;;;;;;;1.80;1.70;;;7.80;99.90;;;;;;4963609;28;20721;-73
2021/03/27 08:14:21;;;;;;;2.10;2.00;;;7.60;99.90;;;;;;4987659;28;20194;-74
2021/03/27 08:17:00;;;;;;;1.13;0.70;;;7.80;99.90;;;;;;4963117;28;20210;-77
2021/03/27 08:19:46;;;;;;;0.30;0.30;;;7.70;99.90;;;;;;5000437;28;20237;-77
2021/03/27 08:22:34;;;;;;;0.67;0.30;;;7.60;99.90;;;;;;5008502;28;20210;-77
2021/03/27 08:25:08;;;;;;;0.40;0.40;;;7.50;99.90;;;;;;4985523;28;20225;-78
2021/03/27 08:28:04;;;;;;;0.50;0.50;;;7.50;99.90;;;;;;5010187;28;20212;-77
2021/03/27 08:30:59;;;;;;;1.07;0.67;;;7.40;99.90;;;;;;5009565;28;20725;-77
2021/03/27 08:33:58;;;;;;;1.37;0.40;;;7.30;99.90;;;;;;5000598;28;20263;-79
2021/03/27 08:36:46;;;;;;;0.60;0.60;;;7.30;99.90;;;;;;5009374;28;20213;-78
2021/03/27 08:39:51;;;;;;;0.50;0.50;;;7.20;99.90;;;;;;5009174;28;20209;-78
2021/03/27 08:43:07;;;;;;;0.70;0.70;;;7.10;99.90;;;;;;5009722;28;20284;-79
2021/03/27 08:46:14;;;;;;;0.50;0.50;;;7.10;99.90;;;;;;5009163;28;20209;-78
2021/03/27 08:49:03;;;;;;;0.70;0.70;;;7.00;99.90;;;;;;5009838;28;20271;-79
2021/03/27 08:51:38;;;;;;;0.90;0.90;;;6.90;99.90;;;;;;5009637;28;20295;-78
2021/03/27 08:54:31;;;;;;;1.60;1.10;;;7.00;99.90;;;;;;5009402;28;20256;-77
2021/03/27 08:57:28;;;;;;;1.17;1.17;;;7.00;99.90;;;;;;5009283;28;20224;-78
2021/03/27 09:00:11;;;;;;;1.30;1.30;;;7.00;99.90;;;;;;5009357;28;20228;-78
2021/03/27 09:03:19;;;;;;;1.60;1.50;;;6.90;99.90;;;;;;5009594;28;20193;-79
2021/03/27 09:06:14;;;;;;;1.20;1.20;;;6.90;99.90;;;;;;5009526;28;20193;-78
2021/03/27 09:08:45;;;;;;;2.00;1.90;;;6.90;99.90;;;;;;5009564;28;20212;-77
2021/03/27 09:11:26;;;;;;;1.40;1.40;;;7.10;99.90;;;;;;5009011;28;20236;-78
2021/03/27 09:14:34;;;;;;;1.30;1.10;;;7.10;99.90;;;;;;5009399;28;20206;-78
2021/03/27 09:17:25;;;;;;;1.07;1.07;;;7.10;99.90;;;;;;5009146;28;20209;-78
2021/03/27 09:20:29;;;;;;;1.20;1.20;;;7.00;99.90;;;;;;5008834;28;20241;-78
2021/03/27 09:23:10;;;;;;;1.33;1.30;;;6.90;99.90;;;;;;5002056;28;20206;-78
2021/03/27 09:26:09;;;;;;;1.47;1.40;;;7.00;99.90;;;;;;4989596;28;20221;-78
2021/03/27 09:28:41;;;;;;;1.50;1.40;;;7.10;99.90;;;;;;4982508;28;20210;-77
2021/03/27 09:31:44;;;;;;;1.00;1.00;;;7.00;99.90;;;;;;4989101;28;20230;-78
2021/03/27 09:34:16;;;;;;;1.20;1.20;;;7.10;99.90;;;;;;4989669;28;20277;-78
2021/03/27 09:36:50;;;;;;;1.57;1.20;;;7.20;99.90;;;;;;4989392;28;20248;-78
2021/03/27 09:39:25;;;;;;;1.37;1.27;;;7.30;99.90;;;;;;4989688;28;20205;-77
2021/03/27 09:42:12;;;;;;;1.57;1.47;;;7.40;99.90;;;;;;4988904;28;20214;-77
2021/03/27 09:44:54;;;;;;;1.30;1.20;;;7.50;99.90;;;;;;4988891;28;20220;-77
2021/03/27 09:47:54;;;;;;;1.57;1.50;;;7.60;99.90;;;;;;4988682;28;20669;-78
2021/03/27 09:50:31;;;;;;;2.10;1.40;;;7.60;99.90;;;;;;4989032;28;20277;-77
2021/03/27 09:53:21;;;;;;;1.90;1.80;;;7.50;99.90;;;;;;4996433;28;20419;-77
2021/03/27 09:55:55;;;;;;;2.13;1.83;;;7.60;99.90;;;;;;5008867;28;21078;-77
2021/03/27 09:58:34;;;;;;;2.30;2.07;;;7.70;99.90;;;;;;5008433;28;20244;-78
2021/03/27 10:01:25;;;;;;;1.87;1.77;;;7.70;99.90;;;;;;5008462;28;20556;-78
2021/03/27 10:04:05;;;;;;;2.07;1.97;;;7.70;99.90;;;;;;5008387;28;20577;-77
2021/03/27 10:07:02;;;;;;;2.10;2.00;;;7.60;99.90;;;;;;5008483;28;20208;-80
2021/03/27 10:10:07;;;;;;;2.40;2.20;;;7.60;99.90;;;;;;5008234;28;20193;-78
2021/03/27 10:12:41;;;;;;;2.13;2.03;;;7.60;99.90;;;;;;5008067;28;20197;-78
2021/03/27 10:15:19;;;;;;;2.47;2.37;;;7.60;99.90;;;;;;5008339;28;20251;-78
2021/03/27 10:17:53;;;;;;;2.40;2.20;;;7.70;99.90;;;;;;5007170;28;20266;-77
2021/03/27 10:20:30;;;;;;;2.60;2.50;;;7.70;99.90;;;;;;5008035;28;20244;-77
2021/03/27 10:23:02;;;;;;;3.67;3.47;;;7.80;99.90;;;;;;5004083;28;20201;-77
2021/03/27 10:25:34;;;;;;;6.83;6.17;;;7.90;99.90;;;;;;4998286;28;20194;-76
2021/03/27 10:28:12;;;;;;;3.10;2.90;;;8.10;99.90;;;;;;4996958;28;20225;-74
2021/03/27 10:30:47;;;;;;;2.90;2.70;;;8.50;99.90;;;;;;4996936;28;20217;-78
2021/03/27 10:33:19;;;;;;;2.67;2.57;;;8.70;99.90;;;;;;4997703;28;20233;-78
2021/03/27 10:36:09;;;;;;;3.17;2.97;;;8.70;99.90;;;;;;4987587;28;20202;-78
2021/03/27 10:39:02;;;;;;;3.60;3.40;;;8.80;99.90;;;;;;4990041;28;20189;-77
2021/03/27 10:41:44;;;;;;;3.30;3.10;;;9.00;99.90;;;;;;4989069;28;20213;-77
2021/03/27 10:44:24;;;;;;;2.70;2.13;;;9.00;99.90;;;;;;4988400;28;20618;-74
2021/03/27 10:46:53;;;;;;;3.07;2.60;;;8.30;99.90;;;;;;4987644;28;20208;-76
2021/03/27 10:49:26;;;;;;;2.30;2.20;;;7.80;99.90;;;;;;4988485;28;20202;-78
2021/03/27 10:52:21;;;;;;;2.40;2.20;;;7.60;99.90;;;;;;4997441;28;20616;-77
2021/03/27 10:55:23;;;;;;;2.53;2.00;;;7.50;99.90;;;;;;4991252;28;20238;-77
2021/03/27 10:58:25;;;;;;;2.90;2.00;;;7.60;99.90;;;;;;4985215;28;20198;-77
2021/03/27 11:01:03;;;;;;;3.10;1.90;;;7.90;99.90;;;;;;4984825;28;20208;-77
2021/03/27 11:04:03;;;;;;;1.90;1.70;;;8.10;99.90;;;;;;4984882;28;20194;-77
2021/03/27 11:06:45;;;;;;;1.87;1.77;;;8.20;99.90;;;;;;4984532;28;20201;-77
2021/03/27 11:09:57;;;;;;;2.40;1.60;;;8.60;99.90;;;;;;4984676;28;20673;-77
2021/03/27 11:12:59;;;;;;;1.67;1.57;;;8.90;99.90;;;;;;4984784;28;20560;-77
2021/03/27 11:16:12;;;;;;;2.00;1.80;;;9.20;99.90;;;;;;4984568;28;20656;-77
2021/03/27 11:19:08;;;;;;;3.13;2.27;;;9.40;99.90;;;;;;4923756;29;20247;-76
2021/03/27 11:21:56;;;;;;;1.80;1.70;;;9.60;99.90;;;;;;4984871;28;20202;-77
2021/03/27 11:24:31;;;;;;;2.00;1.90;;;9.80;99.90;;;;;;4995445;28;20580;-77
2021/03/27 11:27:21;;;;;;;2.33;2.07;;;10.00;99.90;;;;;;5004737;28;20200;-77
2021/03/27 11:29:57;;;;;;;2.57;2.37;;;10.10;99.90;;;;;;5003962;28;20484;-77
2021/03/27 11:32:30;;;;;;;2.67;2.23;;;10.30;99.90;;;;;;5003658;28;20197;-77
2021/03/27 11:35:02;;;;;;;2.07;1.97;;;10.40;99.90;;;;;;5002906;28;20268;-77
2021/03/27 11:37:38;;;;;;;2.67;2.23;;;10.60;99.90;;;;;;5004450;28;20256;-79
2021/03/27 11:40:14;;;;;;;2.83;2.50;;;10.90;99.90;;;;;;4994908;28;20205;-77
2021/03/27 11:42:52;;;;;;;2.67;2.13;;;11.10;99.90;;;;;;4991229;28;20256;-77
2021/03/27 11:45:26;;;;;;;3.00;2.10;;;11.40;99.90;;;;;;4999520;28;20551;-77
2021/03/27 11:48:01;;;;;;;2.93;2.60;;;11.80;99.90;;;;;;4998492;28;20202;-74
2021/03/27 11:50:56;;;;;;;3.73;2.30;;;11.80;99.90;;;;;;4997980;28;20233;-73
2021/03/27 11:53:35;;;;;;;2.83;2.50;;;11.90;99.90;;;;;;4996292;28;20214;-78
2021/03/27 11:56:08;;;;;;;2.60;2.40;;;11.60;99.90;;;;;;4987877;28;20202;-77
2021/03/27 12:01:29;;;;;;;3.00;2.80;;;11.20;99.90;;;;;;5009694;28;20264;-78
2021/03/27 12:04:13;;;;;;;4.80;2.60;;;11.10;99.90;;;;;;5011041;28;20639;-77
2021/03/27 12:06:51;;;;;;;7.53;3.33;;;11.20;99.90;;;;;;5010869;28;20243;-79
2021/03/27 12:09:24;;;;;;;3.77;3.40;;;11.30;99.90;;;;;;5011053;28;20245;-78
2021/03/27 12:12:11;;;;;;;3.37;3.07;;;11.60;99.90;;;;;;5011174;28;20222;-77
2021/03/27 12:14:50;;;;;;;5.00;2.90;;;11.80;99.90;;;;;;5011367;28;21011;-77
2021/03/27 12:17:35;;;;;;;4.70;3.33;;;11.90;99.90;;;;;;5010632;28;20641;-78
2021/03/27 12:20:25;;;;;;;4.23;3.00;;;11.90;99.90;;;;;;5010733;28;20265;-77
2021/03/27 12:22:58;;;;;;;3.47;3.27;;;12.20;99.90;;;;;;5010802;28;20214;-77
2021/03/27 12:25:40;;;;;;;2.80;2.60;;;12.50;99.90;;;;;;5010198;28;20547;-78
2021/03/27 12:28:20;;;;;;;3.30;3.00;;;12.30;99.90;;;;;;5010835;28;20205;-78
2021/03/27 12:30:52;;;;;;;3.10;2.87;;;12.20;99.90;;;;;;5010462;28;20228;-78
2021/03/27 12:33:31;;;;;;;3.13;2.37;;;11.80;99.90;;;;;;5010263;28;20667;-79
2021/03/27 12:36:09;;;;;;;2.77;2.27;;;11.80;99.90;;;;;;5010667;28;20205;-78
2021/03/27 12:39:12;;;;;;;2.27;2.07;;;11.50;99.90;;;;;;5006066;28;20200;-78
2021/03/27 12:41:43;;;;;;;2.50;2.27;;;11.20;99.90;;;;;;4980092;28;20241;-78
2021/03/27 12:44:17;;;;;;;1.97;1.87;;;11.00;99.90;;;;;;4986812;28;20225;-78
2021/03/27 12:46:53;;;;;;;8.23;2.30;;;10.90;99.90;;;;;;4986452;28;20202;-78
2021/03/27 12:49:41;;;;;;;2.87;1.23;;;10.20;99.90;;;;;;4986749;28;20198;-79
2021/03/27 12:52:31;;;;;;;1.90;1.50;;;9.40;99.90;;;;;;4986912;28;20230;-78
2021/03/27 12:55:02;;;;;;;3.63;2.00;;;8.50;99.90;;;;;;5006167;28;20234;-75
2021/03/27 12:57:47;;;;;;;10.97;2.00;;;8.20;99.90;;;;;;5006092;28;20225;-74
2021/03/27 13:00:53;;;;;;;2.33;1.90;;;8.00;99.90;;;;;;4998237;28;20708;-78
2021/03/27 13:03:47;;;;;;;1.77;1.63;;;8.00;99.90;;;;;;4986183;28;20584;-78
2021/03/27 13:06:40;;;;;;;1.97;1.40;;;8.00;99.90;;;;;;4986616;28;20226;-78
2021/03/27 13:09:43;;;;;;;1.60;1.50;;;8.10;99.90;;;;;;4986944;28;20190;-79
2021/03/27 13:12:13;;;;;;;3.37;1.30;;;8.10;99.90;;;;;;4994499;28;20286;-78
2021/03/27 13:15:15;;;;;;;1.23;1.10;;;8.00;99.90;;;;;;4986313;28;20269;-79
2021/03/27 13:17:52;;;;;;;1.30;1.23;;;8.30;99.90;;;;;;4986367;28;20190;-79
2021/03/27 13:20:26;;;;;;;0.90;0.90;;;8.50;99.90;;;;;;4986095;28;20238;-79
2021/03/27 13:22:59;;;;;;;1.67;1.00;;;8.40;99.90;;;;;;4992945;28;20262;-78
2021/03/27 13:25:29;;;;;;;2.13;1.17;;;8.40;99.90;;;;;;5005624;28;20228;-78
2021/03/27 13:27:59;;;;;;;0.80;0.80;;;8.30;99.90;;;;;;5005207;28;20668;-79
2021/03/27 13:30:33;;;;;;;1.37;1.20;;;8.40;99.90;;;;;;5005914;28;20229;-79
2021/03/27 13:33:18;;;;;;;1.07;1.07;;;8.60;99.90;;;;;;5005679;28;20198;-79
2021/03/27 13:36:07;;;;;;;1.40;1.10;;;8.80;99.90;;;;;;5005398;28;20201;-77
2021/03/27 13:38:38;;;;;;;1.40;1.30;;;8.90;99.90;;;;;;5005345;28;20603;-78
2021/03/27 13:41:16;;;;;;;1.33;1.23;;;8.70;99.90;;;;;;5005354;28;20214;-78
2021/03/27 13:43:50;;;;;;;1.10;1.10;;;8.50;99.90;;;;;;5005886;28;20197;-79
2021/03/27 13:46:21;;;;;;;1.87;1.20;;;8.40;99.90;;;;;;5005497;28;20212;-78
2021/03/27 13:48:53;;;;;;;1.13;1.13;;;8.30;99.90;;;;;;5005975;28;20645;-78
2021/03/27 13:51:29;;;;;;;1.20;1.10;;;8.40;99.90;;;;;;5005134;28;20276;-79
2021/03/27 13:54:04;;;;;;;1.13;1.00;;;8.40;99.90;;;;;;4989875;28;20801;-78
2021/03/27 13:56:41;;;;;;;1.90;1.77;;;8.30;99.90;;;;;;4985093;28;20256;-78
2021/03/27 13:59:27;;;;;;;1.47;1.37;;;8.30;99.90;;;;;;4985407;28;20206;-78